METAR Data
IDs: Format: Raw Decoded Include TAF

Data at: 1352 UTC 07 Oct 2022

METAR for:KDLS (The Dalles Muni, OR, US)
Text:KDLS 071253Z AUTO 00000KT 10SM CLR 12/07 A3021 RMK AO2 SLP230 T01220067
Temperature: 12.2°C ( 54°F)
Dewpoint: 6.7°C ( 44°F) [RH = 69%]
Pressure (altimeter):30.21 inches Hg (1023.1 mb) [Sea level pressure: 1023.0 mb]
Winds:calm
Visibility:10 or more sm (16+ km)
Ceiling:at least 12,000 feet AGL
Clouds:sky clear below 12,000 feet AGL
QC Flag:automated observation with no human augmentation